Time;durP1;ratioP1;P1;durP2;ratioP2;P2;SDS_P1;SDS_P2;PMS_P1;PMS_P2;Temp;Humidity;BMP_temperature;BMP_pressure;BME280_temperature;BME280_humidity;BME280_pressure;Samples;Min_cycle;Max_cycle;Signal;HPM_P1;HPM_P2
2021/04/23 00:02:05;;;;;;;7.57;3.75;;;4.90;90.10;;;;;;6152507;28;20790;-81
2021/04/23 00:05:06;;;;;;;10.93;4.00;;;4.60;96.80;;;;;;6136198;28;20072;-81
2021/04/23 00:08:06;;;;;;;9.70;3.90;;;4.80;87.50;;;;;;6170872;28;20481;-83
2021/04/23 00:11:07;;;;;;;6.72;3.70;;;4.70;88.50;;;;;;6156461;28;20035;-80
2021/04/23 00:14:08;;;;;;;9.40;3.92;;;4.80;88.20;;;;;;6140185;28;20035;-81
2021/04/23 00:17:09;;;;;;;8.95;4.00;;;6.70;89.00;;;;;;6139802;28;20039;-81
2021/04/23 00:20:24;;;;;;;10.73;4.43;;;4.70;87.50;;;;;;6156064;28;20108;-80
2021/04/23 00:23:25;;;;;;;14.57;4.35;;;;;;;;;;6156353;28;20034;-81
2021/04/23 00:26:26;;;;;;;17.80;4.90;;;;;;;;;;6179748;28;20038;-81
2021/04/23 00:29:27;;;;;;;7.90;4.28;;;4.90;96.20;;;;;;6163379;28;20432;-81
2021/04/23 00:32:28;;;;;;;13.05;3.92;;;4.90;95.80;;;;;;6179422;28;20026;-81
2021/04/23 00:35:31;;;;;;;10.85;4.55;;;4.90;95.70;;;;;;6162826;28;20608;-81
2021/04/23 00:38:32;;;;;;;8.80;3.97;;;5.20;85.70;;;;;;6171789;28;20026;-81
2021/04/23 00:41:34;;;;;;;9.15;3.92;;;5.20;84.80;;;;;;6155571;28;20496;-82
2021/04/23 00:44:35;;;;;;;10.48;4.15;;;5.30;84.80;;;;;;6139353;28;20042;-81
2021/04/23 00:47:35;;;;;;;7.65;4.07;;;5.60;85.90;;;;;;6156138;28;20138;-81
2021/04/23 00:50:41;;;;;;;9.50;5.32;;;5.10;86.40;;;;;;6162408;28;20037;-81
2021/04/23 00:53:43;;;;;;;9.90;4.60;;;5.20;86.90;;;;;;6166320;28;20085;-82
2021/04/23 00:56:44;;;;;;;8.18;4.90;;;5.10;87.60;;;;;;6155085;28;20118;-83
2021/04/23 00:59:44;;;;;;;9.52;4.15;;;5.20;88.50;;;;;;6171603;28;20027;-83
2021/04/23 01:02:45;;;;;;;7.53;4.07;;;4.70;89.10;;;;;;6162598;28;20594;-82
2021/04/23 01:05:51;;;;;;;10.07;4.53;;;4.60;88.70;;;;;;6147974;28;20039;-81
2021/04/23 01:08:52;;;;;;;10.13;3.75;;;4.40;96.70;;;;;;6155471;28;20027;-81
2021/04/23 01:11:53;;;;;;;12.35;4.47;;;4.70;96.50;;;;;;6159101;28;20025;-81
2021/04/23 01:14:54;;;;;;;13.65;4.03;;;5.00;93.20;;;;;;6178297;28;20038;-81
2021/04/23 01:17:54;;;;;;;8.73;4.15;;;4.70;95.50;;;;;;6139373;28;20085;-80
2021/04/23 01:21:14;;;;;;;11.88;4.47;;;4.90;95.80;;;;;;6156447;28;20034;-81
2021/04/23 01:24:14;;;;;;;12.18;4.63;;;4.60;97.50;;;;;;6171132;28;20023;-83
2021/04/23 01:27:15;;;;;;;7.80;4.53;;;;;;;;;;6154518;28;20046;-80
2021/04/23 01:30:18;;;;;;;7.78;3.85;;;4.30;97.00;;;;;;6170600;28;20034;-83
2021/04/23 01:33:18;;;;;;;7.90;3.90;;;4.30;96.00;;;;;;6144866;28;20382;-81
2021/04/23 01:36:19;;;;;;;11.45;4.70;;;4.70;96.30;;;;;;6170730;28;20058;-80
2021/04/23 01:39:24;;;;;;;6.40;4.20;;;5.10;87.20;;;;;;6170835;28;20105;-81
2021/04/23 01:42:25;;;;;;;9.57;4.18;;;4.80;99.90;;;;;;6154923;28;20108;-81
2021/04/23 01:45:25;;;;;;;8.80;4.25;;;4.90;95.80;;;;;;6154108;28;20039;-81
2021/04/23 01:48:26;;;;;;;9.88;4.00;;;4.60;95.70;;;;;;6172806;28;20054;-80
2021/04/23 01:51:27;;;;;;;5.82;3.70;;;;;;;;;;6177163;28;20028;-83
2021/04/23 01:54:28;;;;;;;7.03;3.72;;;4.60;99.90;;;;;;6177273;28;20061;-80
2021/04/23 01:57:29;;;;;;;6.30;3.90;;;;;;;;;;6164464;28;20034;-81
2021/04/23 02:00:33;;;;;;;7.97;4.20;;;4.60;94.20;;;;;;6161863;28;20061;-81
2021/04/23 02:03:35;;;;;;;8.40;3.90;;;4.20;93.70;;;;;;6161019;28;20026;-81
2021/04/23 02:06:36;;;;;;;9.30;4.10;;;;;;;;;;6177356;28;20034;-83
2021/04/23 02:09:37;;;;;;;10.13;4.50;;;4.30;93.50;;;;;;6160617;28;20026;-82
2021/04/23 02:12:37;;;;;;;10.20;4.38;;;4.40;88.60;;;;;;6160688;28;20129;-81
2021/04/23 02:15:38;;;;;;;7.50;3.65;;;4.90;88.00;;;;;;6144739;28;20053;-81
2021/04/23 02:18:38;;;;;;;8.10;5.45;;;4.20;96.80;;;;;;6153636;28;20034;-81
2021/04/23 02:21:39;;;;;;;7.22;3.90;;;4.10;96.90;;;;;;6171090;28;20896;-81
2021/04/23 02:24:40;;;;;;;9.88;3.70;;;5.10;88.60;;;;;;6169409;28;20049;-82
2021/04/23 02:27:41;;;;;;;10.68;4.43;;;4.70;88.00;;;;;;6160881;28;20062;-82
2021/04/23 02:30:44;;;;;;;11.60;4.35;;;5.00;89.60;;;;;;6174450;28;20026;-83
2021/04/23 02:33:45;;;;;;;10.90;4.63;;;4.20;89.60;;;;;;6176800;28;20026;-83
2021/04/23 02:36:46;;;;;;;9.75;5.03;;;4.30;88.70;;;;;;6160225;28;20041;-81
2021/04/23 02:39:47;;;;;;;12.10;5.75;;;4.60;88.90;;;;;;6159468;28;20483;-80
2021/04/23 02:42:48;;;;;;;9.93;5.22;;;4.50;97.30;;;;;;6168917;28;20552;-81
2021/04/23 02:45:49;;;;;;;9.43;4.88;;;4.20;88.40;;;;;;6168878;28;20074;-80
2021/04/23 02:48:50;;;;;;;9.38;4.10;;;4.40;88.70;;;;;;6139506;28;20031;-80
2021/04/23 02:51:50;;;;;;;11.43;4.45;;;4.70;88.20;;;;;;6160333;28;20094;-81
2021/04/23 02:54:51;;;;;;;7.03;3.78;;;4.40;87.70;;;;;;6160168;28;20038;-81
2021/04/23 02:57:54;;;;;;;8.32;4.15;;;4.60;86.70;;;;;;6174626;28;20084;-81
2021/04/23 03:00:59;;;;;;;8.73;3.80;;;4.50;85.90;;;;;;6170630;28;20027;-81
2021/04/23 03:04:00;;;;;;;8.55;4.30;;;4.50;85.60;;;;;;6163019;28;20107;-81
2021/04/23 03:07:00;;;;;;;8.77;3.80;;;4.80;86.80;;;;;;6176332;28;20042;-81
2021/04/23 03:10:01;;;;;;;13.02;3.83;;;4.40;94.20;;;;;;6169093;28;20035;-81
2021/04/23 03:13:06;;;;;;;9.35;4.10;;;3.90;96.40;;;;;;6153306;28;20094;-81
2021/04/23 03:16:07;;;;;;;7.00;3.85;;;4.60;87.60;;;;;;6136701;28;20355;-83
2021/04/23 03:19:15;;;;;;;6.25;4.35;;;4.30;88.40;;;;;;6137719;28;20038;-81
2021/04/23 03:22:16;;;;;;;9.88;4.20;;;3.90;85.20;;;;;;6152940;28;20062;-81
2021/04/23 03:25:16;;;;;;;9.63;4.00;;;4.20;88.50;;;;;;6152621;28;20389;-83
2021/04/23 03:28:17;;;;;;;9.60;4.10;;;4.30;88.60;;;;;;6136915;28;20051;-83
2021/04/23 03:31:19;;;;;;;8.32;4.10;;;4.40;87.00;;;;;;6153146;28;20105;-81
2021/04/23 03:34:19;;;;;;;11.20;4.40;;;4.30;87.80;;;;;;6136901;28;20381;-82
2021/04/23 03:37:20;;;;;;;7.72;4.07;;;3.90;88.40;;;;;;6153044;28;20045;-82
2021/04/23 03:40:23;;;;;;;7.18;4.13;;;3.40;96.90;;;;;;6168481;28;20126;-80
2021/04/23 03:43:24;;;;;;;9.30;4.07;;;3.80;89.00;;;;;;6157006;28;20366;-81
2021/04/23 03:46:25;;;;;;;11.13;4.07;;;3.70;88.50;;;;;;6143350;28;20058;-83
2021/04/23 03:49:25;;;;;;;9.52;4.18;;;4.00;88.10;;;;;;6156763;28;20031;-81
2021/04/23 03:52:27;;;;;;;7.63;4.13;;;;;;;;;;6157158;28;20058;-81
2021/04/23 03:55:32;;;;;;;7.18;3.80;;;3.70;83.90;;;;;;6173230;28;20106;-82
2021/04/23 03:58:34;;;;;;;8.82;3.92;;;4.00;87.20;;;;;;6157076;28;20027;-80
2021/04/23 04:01:35;;;;;;;9.68;4.13;;;4.00;86.00;;;;;;6172774;28;20038;-81
2021/04/23 04:04:35;;;;;;;6.20;3.88;;;4.50;85.90;;;;;;6164166;28;20031;-81
2021/04/23 04:07:36;;;;;;;8.15;4.03;;;3.90;96.20;;;;;;6179935;28;20037;-81
2021/04/23 04:10:37;;;;;;;7.38;4.35;;;4.60;87.60;;;;;;6152861;28;20034;-81
2021/04/23 04:13:37;;;;;;;9.35;4.60;;;4.50;88.50;;;;;;6172623;28;20057;-80
2021/04/23 04:16:38;;;;;;;11.15;4.25;;;4.70;90.00;;;;;;6173539;28;20090;-81
2021/04/23 04:19:38;;;;;;;7.78;3.83;;;4.20;90.10;;;;;;6179826;28;20045;-82
2021/04/23 04:22:40;;;;;;;9.25;4.30;;;4.00;89.30;;;;;;6143807;28;20034;-82
2021/04/23 04:25:41;;;;;;;20.75;9.32;;;3.90;96.60;;;;;;6139818;28;20045;-82
2021/04/23 04:28:42;;;;;;;9.48;4.43;;;3.90;87.70;;;;;;6155842;28;20077;-81
2021/04/23 04:31:45;;;;;;;13.50;6.63;;;4.00;85.80;;;;;;6156572;28;20035;-81
2021/04/23 04:34:46;;;;;;;8.55;4.57;;;4.40;96.30;;;;;;6139914;28;20037;-81
2021/04/23 04:37:47;;;;;;;15.02;5.35;;;3.90;87.40;;;;;;6147513;28;20038;-84
2021/04/23 04:40:48;;;;;;;11.80;4.68;;;3.70;96.10;;;;;;6162956;28;20030;-81
2021/04/23 04:43:49;;;;;;;12.45;5.07;;;3.80;96.60;;;;;;6162837;28;20084;-81
2021/04/23 04:46:49;;;;;;;9.27;4.47;;;3.70;96.90;;;;;;6162445;28;20058;-81
2021/04/23 04:49:50;;;;;;;11.30;5.25;;;3.90;95.60;;;;;;6162323;28;20046;-80
2021/04/23 04:52:51;;;;;;;21.65;11.13;;;3.80;95.40;;;;;;6170745;28;20054;-80
2021/04/23 04:55:53;;;;;;;22.25;10.60;;;4.50;95.40;;;;;;6154944;28;20031;-81
2021/04/23 04:58:54;;;;;;;17.55;8.85;;;;;;;;;;6159602;28;20473;-80
2021/04/23 05:01:55;;;;;;;12.07;4.28;;;4.50;95.50;;;;;;6192879;28;20019;-82
2021/04/23 05:04:56;;;;;;;9.73;6.30;;;4.70;99.90;;;;;;6171267;28;20054;-82
2021/04/23 05:07:56;;;;;;;9.65;4.72;;;5.20;99.90;;;;;;6155377;28;20042;-84
2021/04/23 05:10:57;;;;;;;15.35;6.57;;;5.80;99.10;;;;;;6158099;28;20057;-81
2021/04/23 05:13:58;;;;;;;12.30;6.13;;;;;;;;;;6178898;28;20144;-80
2021/04/23 05:16:59;;;;;;;8.18;5.53;;;;;;;;;;6162949;28;20508;-82
2021/04/23 05:20:00;;;;;;;10.68;4.57;;;;;;;;;;6171162;28;20031;-82
2021/04/23 05:23:01;;;;;;;12.32;6.57;;;7.40;91.80;;;;;;6154989;28;20070;-83
2021/04/23 05:26:03;;;;;;;13.18;4.65;;;;;;;;;;6162748;28;20046;-84
2021/04/23 05:29:04;;;;;;;11.20;5.35;;;;;;;;;;6154782;28;20035;-83
2021/04/23 05:32:06;;;;;;;14.05;6.88;;;;;;;;;;6173105;28;20122;-82
2021/04/23 05:35:08;;;;;;;11.43;6.15;;;8.40;84.70;;;;;;6173762;28;20030;-86
2021/04/23 05:38:09;;;;;;;17.73;10.50;;;;;;;;;;6157853;28;20805;-85
2021/04/23 05:41:10;;;;;;;16.50;8.55;;;;;;;;;;6153687;28;20031;-84
2021/04/23 05:44:11;;;;;;;26.55;14.70;;;9.40;80.20;;;;;;6151261;28;20069;-84
2021/04/23 05:47:24;;;;;;;14.68;10.50;;;9.70;81.60;;;;;;6145798;28;20100;-84
2021/04/23 05:50:26;;;;;;;;;;;9.80;81.50;;;;;;6179398;28;20500;-85
2021/04/23 05:53:27;;;;;;;11.23;6.72;;;;;;;;;;6162853;28;19914;-83
2021/04/23 05:56:28;;;;;;;10.60;5.50;;;;;;;;;;6167870;28;20038;-83
2021/04/23 06:00:00;;;;;;;10.80;6.05;;;10.90;76.10;;;;;;6176211;28;20062;-84
2021/04/23 06:03:10;;;;;;;10.02;5.53;;;11.40;92.70;;;;;;6170899;28;20026;-84
2021/04/23 06:06:10;;;;;;;14.35;6.93;;;11.60;80.30;;;;;;6137883;28;20065;-84
2021/04/23 06:09:11;;;;;;;10.55;5.82;;;11.80;80.50;;;;;;6137928;28;20030;-84
2021/04/23 06:12:11;;;;;;;10.88;4.93;;;12.10;91.30;;;;;;6145612;28;20065;-84
2021/04/23 06:15:12;;;;;;;13.82;6.15;;;12.50;91.10;;;;;;6176966;28;20389;-83
2021/04/23 06:18:13;;;;;;;6.90;4.95;;;12.30;59.80;;;;;;6139287;28;20122;-84
2021/04/23 06:21:14;;;;;;;8.13;4.82;;;;;;;;;;6141550;28;20084;-85
2021/04/23 06:24:15;;;;;;;10.38;5.28;;;;;;;;;;6160060;28;20073;-84
2021/04/23 06:27:16;;;;;;;8.93;4.70;;;;;;;;;;6157457;28;20074;-85
2021/04/23 06:30:22;;;;;;;9.07;4.50;;;14.50;84.60;;;;;;6153439;28;20117;-86
2021/04/23 06:33:26;;;;;;;15.23;6.57;;;14.40;78.20;;;;;;6153860;28;20027;-84
2021/04/23 06:36:27;;;;;;;14.27;8.00;;;14.40;65.30;;;;;;6137735;28;20031;-85
2021/04/23 06:39:28;;;;;;;12.02;5.65;;;14.70;53.60;;;;;;6137478;28;20097;-84
2021/04/23 06:42:29;;;;;;;12.18;5.72;;;15.20;68.90;;;;;;6156808;28;20106;-85
2021/04/23 06:45:29;;;;;;;9.93;4.53;;;15.50;51.90;;;;;;6154038;28;20046;-84
2021/04/23 06:48:30;;;;;;;9.82;5.18;;;15.70;51.60;;;;;;6128973;28;20051;-84
2021/04/23 06:51:31;;;;;;;13.65;4.80;;;15.60;54.80;;;;;;6137234;28;20054;-84
2021/04/23 06:54:32;;;;;;;6.88;4.32;;;15.50;55.10;;;;;;6146526;28;20031;-84
2021/04/23 06:57:32;;;;;;;8.48;5.03;;;15.70;71.30;;;;;;6129271;28;20032;-83
2021/04/23 07:00:34;;;;;;;9.68;5.15;;;15.60;54.10;;;;;;6153245;28;20057;-83
2021/04/23 07:03:35;;;;;;;5.60;4.50;;;15.60;53.80;;;;;;6142664;28;20030;-84
2021/04/23 07:06:39;;;;;;;8.00;4.90;;;15.80;54.40;;;;;;6152754;28;20460;-84
2021/04/23 07:09:40;;;;;;;16.73;5.65;;;16.10;52.60;;;;;;6156578;28;20070;-85
2021/04/23 07:12:40;;;;;;;9.32;4.63;;;16.10;52.20;;;;;;6136747;28;20489;-83
2021/04/23 07:15:41;;;;;;;11.60;4.95;;;16.20;50.20;;;;;;6169159;28;20034;-83
2021/04/23 07:18:42;;;;;;;8.75;5.00;;;;;;;;;;6157360;28;20023;-83
2021/04/23 07:21:43;;;;;;;7.68;4.55;;;16.90;45.60;;;;;;6156960;28;20385;-83
2021/04/23 07:24:44;;;;;;;9.65;4.78;;;18.00;48.00;;;;;;6157445;28;20027;-84
2021/04/23 07:27:45;;;;;;;10.40;5.50;;;17.30;48.20;;;;;;6157132;28;20040;-84
2021/04/23 07:30:45;;;;;;;10.50;5.28;;;17.60;49.10;;;;;;6152320;28;20581;-83
2021/04/23 07:33:46;;;;;;;10.65;5.55;;;17.80;48.40;;;;;;6149773;28;20027;-83
2021/04/23 07:36:47;;;;;;;8.52;4.78;;;18.10;46.20;;;;;;6149612;28;20066;-85
2021/04/23 07:39:48;;;;;;;14.18;5.90;;;;;;;;;;6149909;28;20027;-83
2021/04/23 07:42:48;;;;;;;14.80;6.00;;;18.60;42.40;;;;;;6173196;28;20165;-82
2021/04/23 07:45:49;;;;;;;10.77;5.40;;;19.20;45.50;;;;;;6150840;28;20100;-82
2021/04/23 07:48:50;;;;;;;16.90;6.20;;;19.10;44.90;;;;;;6173393;28;20488;-83
2021/04/23 07:51:50;;;;;;;9.15;4.93;;;19.10;44.60;;;;;;6173606;28;20042;-84
2021/04/23 07:54:51;;;;;;;9.02;5.05;;;19.20;44.10;;;;;;6140935;28;20114;-84
2021/04/23 07:57:55;;;;;;;13.35;5.60;;;19.30;44.40;;;;;;6140982;28;20571;-82
2021/04/23 08:00:55;;;;;;;8.73;4.90;;;19.40;42.90;;;;;;6149333;28;20027;-84
2021/04/23 08:03:56;;;;;;;11.52;5.18;;;19.60;43.50;;;;;;6180454;28;20033;-83
2021/04/23 08:06:57;;;;;;;9.75;5.47;;;19.80;44.90;;;;;;6159176;28;20460;-84
2021/04/23 08:09:57;;;;;;;12.10;5.03;;;20.00;45.10;;;;;;6146693;28;20038;-84
2021/04/23 08:12:58;;;;;;;8.68;5.20;;;20.20;44.70;;;;;;6180119;28;20133;-83
2021/04/23 08:15:59;;;;;;;10.98;5.50;;;20.40;43.80;;;;;;6180496;28;20149;-85
2021/04/23 08:18:59;;;;;;;11.55;5.28;;;20.30;59.10;;;;;;6179931;28;20038;-85
2021/04/23 08:22:00;;;;;;;15.82;5.70;;;20.60;43.50;;;;;;6163562;28;20030;-83
2021/04/23 08:25:01;;;;;;;8.38;5.35;;;20.80;43.90;;;;;;6179836;28;20037;-82
2021/04/23 08:28:01;;;;;;;10.70;5.00;;;20.90;43.10;;;;;;6178605;28;20034;-84
2021/04/23 08:31:02;;;;;;;10.57;5.43;;;21.10;43.30;;;;;;6179885;28;20030;-82
2021/04/23 08:34:03;;;;;;;13.43;5.45;;;21.10;42.90;;;;;;6163300;28;20033;-82
2021/04/23 08:37:04;;;;;;;11.65;5.40;;;21.10;41.70;;;;;;6168714;28;20038;-84
2021/04/23 08:40:05;;;;;;;10.88;4.80;;;21.40;41.60;;;;;;6140261;28;20490;-82
2021/04/23 08:43:06;;;;;;;10.43;5.72;;;21.20;40.80;;;;;;6155522;28;20627;-85
2021/04/23 08:46:06;;;;;;;9.95;5.15;;;21.20;40.60;;;;;;6155993;28;20069;-81
2021/04/23 08:49:07;;;;;;;8.30;5.30;;;21.60;41.50;;;;;;6155607;28;20059;-82
2021/04/23 08:52:08;;;;;;;9.48;5.20;;;21.80;55.00;;;;;;6163551;28;20030;-82
2021/04/23 08:55:10;;;;;;;7.13;4.97;;;21.80;40.50;;;;;;6179222;28;20045;-83
2021/04/23 08:58:12;;;;;;;9.15;5.32;;;21.80;39.30;;;;;;6162607;28;20125;-82
2021/04/23 09:01:13;;;;;;;9.70;5.00;;;;;;;;;;6159558;28;20417;-82
2021/04/23 09:04:14;;;;;;;12.37;4.77;;;22.00;39.80;;;;;;6178745;28;20085;-82
2021/04/23 09:07:14;;;;;;;9.40;5.80;;;22.10;39.70;;;;;;6179078;28;20042;-83
2021/04/23 09:10:15;;;;;;;11.45;5.93;;;22.10;39.70;;;;;;6178893;28;20146;-85
2021/04/23 09:13:16;;;;;;;9.77;4.60;;;22.10;39.70;;;;;;6179189;28;20035;-82
2021/04/23 09:16:21;;;;;;;8.73;4.60;;;22.40;39.70;;;;;;6162430;28;20129;-82
2021/04/23 09:19:27;;;;;;;13.38;5.03;;;22.90;50.90;;;;;;6162461;28;20037;-82
2021/04/23 09:22:32;;;;;;;6.93;4.43;;;22.90;47.90;;;;;;6155364;28;20042;-81
2021/04/23 09:25:49;;;;;;;11.73;4.97;;;22.90;48.50;;;;;;6147350;28;20034;-83
2021/04/23 09:28:50;;;;;;;12.20;4.93;;;22.60;39.90;;;;;;6178641;28;20038;-83
2021/04/23 09:31:51;;;;;;;9.45;5.38;;;22.90;40.20;;;;;;6162033;28;20535;-82
2021/04/23 09:35:01;;;;;;;8.35;4.53;;;22.80;40.40;;;;;;6178063;28;20473;-83
2021/04/23 09:38:02;;;;;;;9.50;4.75;;;22.80;38.70;;;;;;6178635;28;20444;-83
2021/04/23 09:41:19;;;;;;;13.40;5.00;;;23.00;39.30;;;;;;6161561;28;20032;-84
2021/04/23 09:44:33;;;;;;;8.63;4.20;;;22.80;40.00;;;;;;6161808;28;20469;-84
2021/04/23 09:47:35;;;;;;;9.07;4.50;;;22.80;39.70;;;;;;6177339;28;20120;-79
2021/04/23 09:50:36;;;;;;;11.23;4.47;;;23.10;40.00;;;;;;6140930;28;20109;-79
2021/04/23 09:53:37;;;;;;;9.90;5.20;;;23.10;38.50;;;;;;6162130;28;20061;-82
2021/04/23 09:56:38;;;;;;;12.80;4.80;;;23.10;40.50;;;;;;6172554;28;20380;-83
2021/04/23 09:59:53;;;;;;;8.98;4.60;;;23.90;40.50;;;;;;6161595;28;20027;-81
2021/04/23 10:02:55;;;;;;;10.90;5.32;;;23.40;39.70;;;;;;6168731;28;20038;-82
2021/04/23 10:05:56;;;;;;;9.48;4.53;;;23.30;39.20;;;;;;6154605;28;20501;-82
2021/04/23 10:09:06;;;;;;;10.98;4.40;;;23.50;38.80;;;;;;6145907;28;20031;-81
2021/04/23 10:12:07;;;;;;;10.02;4.63;;;23.60;37.00;;;;;;6153706;28;20037;-82
2021/04/23 10:15:21;;;;;;;9.90;4.55;;;23.50;39.30;;;;;;6137614;28;20035;-82
2021/04/23 10:18:22;;;;;;;9.20;5.03;;;23.40;38.30;;;;;;6170232;28;20030;-81
2021/04/23 10:21:23;;;;;;;9.77;4.55;;;23.50;39.90;;;;;;6153971;28;20460;-81
2021/04/23 10:24:23;;;;;;;9.07;5.63;;;23.50;39.30;;;;;;6158241;28;20470;-83
2021/04/23 10:27:24;;;;;;;10.63;4.65;;;23.60;38.40;;;;;;6176819;28;20054;-80
2021/04/23 10:30:30;;;;;;;9.38;4.70;;;23.70;39.50;;;;;;6160905;28;20041;-80
2021/04/23 10:33:32;;;;;;;8.80;4.78;;;23.80;39.20;;;;;;6177087;28;20045;-81
2021/04/23 10:36:33;;;;;;;7.65;4.53;;;23.50;37.60;;;;;;6160950;28;20028;-80
2021/04/23 10:39:35;;;;;;;12.65;5.20;;;23.50;40.00;;;;;;6160878;28;20023;-81
2021/04/23 10:43:09;;;;;;;9.82;4.82;;;23.60;38.80;;;;;;6159896;28;20125;-81
2021/04/23 10:46:15;;;;;;;8.52;4.90;;;23.50;39.20;;;;;;6154915;28;20824;-81
2021/04/23 10:49:16;;;;;;;9.07;5.30;;;23.60;39.30;;;;;;6159681;28;20106;-80
2021/04/23 10:52:16;;;;;;;16.08;4.70;;;23.40;55.20;;;;;;6168530;28;20065;-84
2021/04/23 10:55:17;;;;;;;12.18;4.82;;;23.40;40.80;;;;;;6137548;28;20038;-83
2021/04/23 10:58:29;;;;;;;9.98;4.60;;;23.40;39.80;;;;;;6153073;28;20031;-81
2021/04/23 11:01:32;;;;;;;10.75;5.07;;;23.20;39.90;;;;;;6169199;28;20393;-82
2021/04/23 11:04:33;;;;;;;10.45;5.10;;;23.50;41.00;;;;;;6175205;28;20030;-82
2021/04/23 11:07:33;;;;;;;12.15;5.13;;;23.20;38.80;;;;;;6153630;28;20533;-81
2021/04/23 11:11:02;;;;;;;8.63;5.17;;;22.50;69.30;;;;;;6146797;28;20117;-81
2021/04/23 11:14:23;;;;;;;9.85;4.97;;;22.60;39.80;;;;;;6171755;28;20022;-81
2021/04/23 11:17:27;;;;;;;8.27;5.38;;;23.00;40.60;;;;;;6157361;28;20341;-80
2021/04/23 11:20:30;;;;;;;9.52;5.25;;;22.80;41.00;;;;;;6148632;28;20176;-80
2021/04/23 11:24:06;;;;;;;10.18;4.65;;;23.00;41.00;;;;;;6155523;28;20057;-82
2021/04/23 11:27:08;;;;;;;12.68;5.78;;;22.40;38.90;;;;;;6173637;28;20477;-82
2021/04/23 11:30:09;;;;;;;9.50;5.03;;;23.50;39.80;;;;;;6154151;28;20019;-82
2021/04/23 11:33:10;;;;;;;10.17;5.60;;;23.20;39.60;;;;;;6142782;28;20045;-81
2021/04/23 11:36:34;;;;;;;14.57;5.47;;;23.40;40.80;;;;;;6141666;28;20015;-81
2021/04/23 11:39:45;;;;;;;10.13;5.38;;;23.40;40.70;;;;;;6154761;28;20658;-81
2021/04/23 11:42:48;;;;;;;10.05;5.00;;;23.30;39.40;;;;;;6159131;28;20027;-81
2021/04/23 11:45:49;;;;;;;8.73;5.18;;;23.00;39.30;;;;;;6159037;28;20381;-82
2021/04/23 11:48:50;;;;;;;7.88;5.35;;;23.00;42.00;;;;;;6158531;28;20124;-82
2021/04/23 11:52:01;;;;;;;10.23;4.40;;;22.90;41.90;;;;;;6136632;28;20077;-83
2021/04/23 11:55:10;;;;;;;9.00;5.00;;;23.00;51.90;;;;;;6160162;28;20038;-81
2021/04/23 12:02:46;;;;;;;11.77;4.93;;;25.60;42.80;;;;;;6144413;28;20035;-83
2021/04/23 12:05:48;;;;;;;10.55;4.82;;;22.00;71.10;;;;;;6130717;28;20190;-79
2021/04/23 12:08:48;;;;;;;10.02;5.35;;;22.10;72.10;;;;;;6099687;29;20027;-80
2021/04/23 12:12:11;;;;;;;11.00;4.45;;;23.50;55.20;;;;;;6131219;29;20073;-81
2021/04/23 12:15:30;;;;;;;10.00;4.70;;;22.30;70.40;;;;;;6101719;29;20097;-83
2021/04/23 12:18:31;;;;;;;11.27;5.10;;;22.40;70.90;;;;;;6116976;29;20063;-81
2021/04/23 12:21:32;;;;;;;10.40;4.55;;;22.00;71.80;;;;;;6098821;29;20508;-81
2021/04/23 12:24:33;;;;;;;8.85;4.70;;;;;;;;;;6130464;29;20098;-82
2021/04/23 12:27:34;;;;;;;8.03;4.83;;;22.10;71.90;;;;;;6130491;29;20066;-83
2021/04/23 12:30:34;;;;;;;9.85;4.60;;;21.80;72.20;;;;;;6114468;29;20085;-83
2021/04/23 12:33:39;;;;;;;8.85;4.57;;;21.90;51.90;;;;;;6141705;28;20477;-81
2021/04/23 12:36:42;;;;;;;10.50;4.60;;;21.80;45.10;;;;;;6179446;28;20030;-80
2021/04/23 12:39:43;;;;;;;9.18;4.93;;;;;;;;;;6147980;28;20034;-81
2021/04/23 12:42:44;;;;;;;6.53;4.40;;;22.10;50.90;;;;;;6172012;28;20030;-84
2021/04/23 12:45:49;;;;;;;14.65;4.53;;;22.10;57.40;;;;;;6139845;28;20381;-82
2021/04/23 12:49:00;;;;;;;7.97;4.28;;;21.90;41.00;;;;;;6142836;28;20030;-81
2021/04/23 12:52:03;;;;;;;9.75;4.47;;;21.80;45.60;;;;;;6189966;28;20520;-81
2021/04/23 12:55:04;;;;;;;10.57;4.60;;;21.80;40.90;;;;;;6152205;28;20053;-80
2021/04/23 12:58:05;;;;;;;8.07;4.70;;;21.30;41.30;;;;;;6171806;28;20039;-76
2021/04/23 13:01:05;;;;;;;7.90;4.50;;;21.80;45.00;;;;;;6139795;28;20038;-77
2021/04/23 13:04:11;;;;;;;8.95;4.95;;;22.00;41.70;;;;;;6158817;28;20489;-76
2021/04/23 13:07:17;;;;;;;8.57;3.95;;;22.00;43.00;;;;;;6156930;28;20038;-77
2021/04/23 13:10:20;;;;;;;10.25;4.80;;;21.90;40.20;;;;;;6155967;28;20390;-77
2021/04/23 13:13:21;;;;;;;14.32;4.78;;;21.70;58.30;;;;;;6154597;28;20026;-79
2021/04/23 13:16:22;;;;;;;10.93;4.13;;;22.30;60.20;;;;;;6155157;28;20031;-78
2021/04/23 13:19:37;;;;;;;9.65;4.57;;;21.90;61.90;;;;;;6173235;28;20363;-78
2021/04/23 13:22:44;;;;;;;7.75;4.20;;;21.80;44.70;;;;;;6147733;28;20543;-78
2021/04/23 13:25:46;;;;;;;9.63;4.20;;;21.70;44.40;;;;;;6170568;28;20408;-77
2021/04/23 13:28:56;;;;;;;9.35;4.10;;;21.70;43.00;;;;;;6155085;28;20470;-77
2021/04/23 13:32:00;;;;;;;11.95;4.43;;;21.80;43.80;;;;;;6178772;28;20030;-76
2021/04/23 13:35:01;;;;;;;7.00;4.13;;;21.80;44.20;;;;;;6162060;28;20499;-77
2021/04/23 13:38:36;;;;;;;10.52;4.47;;;21.90;44.20;;;;;;6196011;28;20034;-77
2021/04/23 13:41:38;;;;;;;9.77;4.25;;;21.80;41.60;;;;;;6178513;28;20031;-85
2021/04/23 13:44:38;;;;;;;8.25;4.47;;;21.70;41.50;;;;;;6123377;28;20397;-80
2021/04/23 13:47:43;;;;;;;9.73;4.18;;;21.80;43.30;;;;;;6161703;28;20109;-78
2021/04/23 13:50:43;;;;;;;7.20;4.15;;;21.90;44.70;;;;;;6155880;28;20031;-77
2021/04/23 13:53:44;;;;;;;11.55;3.85;;;22.10;41.90;;;;;;6154288;28;20052;-79
2021/04/23 13:56:49;;;;;;;9.60;4.32;;;22.00;42.80;;;;;;6148640;28;20083;-79
2021/04/23 13:59:54;;;;;;;8.13;4.63;;;22.00;42.60;;;;;;6177437;28;20037;-79
2021/04/23 14:02:59;;;;;;;12.32;4.57;;;22.00;42.50;;;;;;6156875;28;20035;-81
2021/04/23 14:05:59;;;;;;;7.50;3.95;;;21.80;42.40;;;;;;6169795;28;20513;-79
2021/04/23 14:09:00;;;;;;;9.80;4.20;;;21.60;43.40;;;;;;6172021;28;20039;-81
2021/04/23 14:12:03;;;;;;;10.93;5.03;;;21.60;44.60;;;;;;6177585;28;20485;-79
2021/04/23 14:15:04;;;;;;;7.00;3.90;;;21.70;43.20;;;;;;6155012;28;20118;-77
2021/04/23 14:18:05;;;;;;;9.73;4.50;;;21.50;43.00;;;;;;6171441;28;20085;-77
2021/04/23 14:21:06;;;;;;;7.72;5.00;;;21.30;42.20;;;;;;6160702;28;20057;-77
2021/04/23 14:24:07;;;;;;;10.93;4.40;;;21.30;43.10;;;;;;6172038;28;20477;-77
2021/04/23 14:27:10;;;;;;;7.25;4.57;;;21.40;58.80;;;;;;6168534;28;20469;-77
2021/04/23 14:30:11;;;;;;;13.98;5.35;;;21.30;59.00;;;;;;6169443;28;20033;-77
2021/04/23 14:33:12;;;;;;;7.18;4.53;;;21.70;71.80;;;;;;6151976;28;20030;-81
2021/04/23 14:36:13;;;;;;;12.00;4.45;;;21.40;56.50;;;;;;6152338;28;20390;-77
2021/04/23 14:39:15;;;;;;;8.07;4.68;;;21.00;72.80;;;;;;6153561;28;20026;-76
2021/04/23 14:42:16;;;;;;;8.32;4.43;;;21.00;73.40;;;;;;6153690;28;20470;-77
2021/04/23 14:45:16;;;;;;;8.43;4.50;;;20.90;71.30;;;;;;6153831;28;20134;-77
2021/04/23 14:48:17;;;;;;;13.65;4.50;;;21.00;70.20;;;;;;6153249;28;20054;-78
2021/04/23 14:51:18;;;;;;;9.48;4.53;;;20.60;71.40;;;;;;6153579;28;20031;-77
2021/04/23 14:54:18;;;;;;;8.82;4.60;;;21.10;72.10;;;;;;6153482;28;20057;-77
2021/04/23 14:57:19;;;;;;;6.57;3.97;;;21.00;71.40;;;;;;6169422;28;20027;-77
2021/04/23 15:00:21;;;;;;;10.65;4.93;;;21.20;72.10;;;;;;6170368;28;20038;-77
2021/04/23 15:03:21;;;;;;;10.05;4.97;;;20.90;71.20;;;;;;6161387;28;20034;-80
2021/04/23 15:06:22;;;;;;;8.95;4.30;;;21.10;70.90;;;;;;6190431;28;20491;-79
2021/04/23 15:09:46;;;;;;;8.75;4.60;;;20.90;55.10;;;;;;6169243;28;20050;-78
2021/04/23 15:12:46;;;;;;;9.10;4.82;;;20.90;71.90;;;;;;6127076;28;20117;-78
2021/04/23 15:15:47;;;;;;;8.30;4.50;;;20.70;71.40;;;;;;6127186;29;20047;-83
2021/04/23 15:18:48;;;;;;;8.35;4.63;;;21.10;72.60;;;;;;6111092;29;20031;-81
2021/04/23 15:21:49;;;;;;;7.47;4.57;;;;;;;;;;6127139;29;20514;-81
2021/04/23 15:24:49;;;;;;;8.00;4.00;;;21.20;52.10;;;;;;6127093;29;20087;-81
2021/04/23 15:27:51;;;;;;;7.72;4.22;;;21.00;58.90;;;;;;6110867;29;20031;-82
2021/04/23 15:30:52;;;;;;;7.07;4.20;;;20.80;43.20;;;;;;6127122;29;20035;-79
2021/04/23 15:33:52;;;;;;;10.32;4.90;;;20.60;43.50;;;;;;6127032;28;20114;-78
2021/04/23 15:36:53;;;;;;;10.10;4.70;;;20.50;43.20;;;;;;6127913;28;20122;-83
2021/04/23 15:39:54;;;;;;;6.97;4.35;;;20.50;44.00;;;;;;6131807;28;20031;-84
2021/04/23 15:42:55;;;;;;;7.45;4.28;;;20.60;44.00;;;;;;6131735;29;20446;-83
2021/04/23 15:45:56;;;;;;;12.43;4.13;;;20.20;44.00;;;;;;6115908;28;20059;-82
2021/04/23 15:48:58;;;;;;;7.63;4.50;;;20.20;45.20;;;;;;6126048;28;20074;-82
2021/04/23 15:51:59;;;;;;;8.30;3.95;;;20.20;42.00;;;;;;6164927;28;20034;-82
2021/04/23 15:55:00;;;;;;;6.60;3.72;;;20.20;41.70;;;;;;6154776;28;20109;-81
2021/04/23 15:58:00;;;;;;;7.13;3.88;;;20.20;44.20;;;;;;6160775;28;20054;-81
2021/04/23 16:01:01;;;;;;;9.13;4.25;;;20.20;44.20;;;;;;6165162;28;20061;-82
2021/04/23 16:04:02;;;;;;;9.00;4.22;;;20.10;44.10;;;;;;6178179;28;20041;-80
2021/04/23 16:07:02;;;;;;;9.45;4.50;;;20.10;44.60;;;;;;6179935;28;20735;-83